createdAt,value
2022-11-13T00:01:10.295Z,51.70
2022-11-13T00:03:38.333Z,51.80
2022-11-13T00:06:06.750Z,51.70
2022-11-13T00:08:36.065Z,51.60
2022-11-13T00:11:05.710Z,51.60
2022-11-13T00:13:34.368Z,51.60
2022-11-13T00:16:03.983Z,51.60
2022-11-13T00:18:32.900Z,51.70
2022-11-13T00:21:06.721Z,51.60
2022-11-13T00:23:37.188Z,51.70
2022-11-13T00:26:06.970Z,51.70
2022-11-13T00:28:34.943Z,51.70
2022-11-13T00:31:04.650Z,51.70
2022-11-13T00:33:55.404Z,51.70
2022-11-13T00:36:25.859Z,51.70
2022-11-13T00:38:56.423Z,51.70
2022-11-13T00:41:25.260Z,51.80
2022-11-13T00:43:53.413Z,51.80
2022-11-13T00:46:21.420Z,51.80
2022-11-13T00:48:49.728Z,51.80
2022-11-13T00:51:19.484Z,51.80
2022-11-13T00:53:47.506Z,51.70
2022-11-13T00:56:16.776Z,51.70
2022-11-13T00:58:44.699Z,51.70
2022-11-13T01:01:14.892Z,51.70
2022-11-13T01:03:42.917Z,51.70
2022-11-13T01:06:13.514Z,52.20
2022-11-13T01:08:41.597Z,51.70
2022-11-13T01:11:11.573Z,51.60
2022-11-13T01:13:42.048Z,51.70
2022-11-13T01:16:12.074Z,51.70
2022-11-13T01:18:41.206Z,51.60
2022-11-13T01:21:11.799Z,51.60
2022-11-13T01:23:40.132Z,51.60
2022-11-13T01:26:14.109Z,51.60
2022-11-13T01:28:45.157Z,51.60
2022-11-13T01:31:16.674Z,51.60
2022-11-13T01:33:44.679Z,51.60
2022-11-13T01:36:14.566Z,51.40
2022-11-13T01:38:42.501Z,51.40
2022-11-13T01:41:22.886Z,51.40
2022-11-13T01:43:53.781Z,51.50
2022-11-13T01:46:26.290Z,51.40
2022-11-13T01:48:59.909Z,51.30
2022-11-13T01:51:33.330Z,51.30
2022-11-13T01:54:03.757Z,51.40
2022-11-13T01:56:31.735Z,51.30
2022-11-13T01:59:08.132Z,51.40
2022-11-13T02:01:36.135Z,51.40
2022-11-13T02:04:04.131Z,51.30
2022-11-13T02:06:37.620Z,51.40
2022-11-13T02:09:06.864Z,51.40
2022-11-13T02:11:34.773Z,51.40
2022-11-13T02:14:05.190Z,51.40
2022-11-13T02:16:35.609Z,51.40
2022-11-13T02:19:06.121Z,51.40
2022-11-13T02:21:42.066Z,51.30
2022-11-13T02:24:22.558Z,51.30
2022-11-13T02:26:52.349Z,51.40
2022-11-13T02:29:20.310Z,51.30
2022-11-13T02:31:48.202Z,51.30
2022-11-13T02:34:16.295Z,51.30
2022-11-13T02:36:44.266Z,51.30
2022-11-13T02:39:14.931Z,51.30
2022-11-13T02:41:44.194Z,51.30
2022-11-13T02:44:12.229Z,51.30
2022-11-13T02:46:40.129Z,51.20
2022-11-13T02:49:08.578Z,51.20
2022-11-13T02:51:36.539Z,51.10
2022-11-13T02:54:04.920Z,51.10
2022-11-13T02:56:32.834Z,51.10
2022-11-13T02:59:02.082Z,51.10
2022-11-13T03:01:30.117Z,51.10
2022-11-13T03:03:58.640Z,51.10
2022-11-13T03:06:26.822Z,51.20
2022-11-13T03:08:54.744Z,51.20
2022-11-13T03:11:22.687Z,51.20
2022-11-13T03:13:50.577Z,51.20
2022-11-13T03:16:19.871Z,51.10
2022-11-13T03:18:47.835Z,51.00
2022-11-13T03:21:17.156Z,51.00
2022-11-13T03:23:46.049Z,51.10
2022-11-13T03:26:15.615Z,50.90
2022-11-13T03:28:43.743Z,51.00
2022-11-13T03:31:11.821Z,51.00
2022-11-13T03:33:41.219Z,51.00
2022-11-13T03:36:09.841Z,51.00
2022-11-13T03:38:37.857Z,50.90
2022-11-13T03:41:06.159Z,50.90
2022-11-13T03:43:34.053Z,51.00
2022-11-13T03:46:02.011Z,51.00
2022-11-13T03:48:30.315Z,51.00
2022-11-13T03:50:59.890Z,51.10
2022-11-13T03:53:27.791Z,51.10
2022-11-13T03:55:55.705Z,51.60
2022-11-13T03:58:23.668Z,51.00
2022-11-13T04:00:55.268Z,50.90
2022-11-13T04:03:23.280Z,51.10
2022-11-13T04:05:51.860Z,51.00
2022-11-13T04:08:21.206Z,51.00
2022-11-13T04:10:49.188Z,51.00
2022-11-13T04:13:17.121Z,51.00
2022-11-13T04:15:45.024Z,51.00
2022-11-13T04:18:12.923Z,51.00
2022-11-13T04:20:40.804Z,50.90
2022-11-13T04:23:12.451Z,50.90
2022-11-13T04:25:41.729Z,51.00
2022-11-13T04:28:09.876Z,51.00
2022-11-13T04:30:37.937Z,51.00
2022-11-13T04:33:05.857Z,51.10
2022-11-13T04:35:33.742Z,51.10
2022-11-13T04:38:01.765Z,51.10
2022-11-13T04:40:29.766Z,51.20
2022-11-13T04:42:58.096Z,51.10
2022-11-13T04:45:27.417Z,51.20
2022-11-13T04:47:55.352Z,51.20
2022-11-13T04:50:23.888Z,51.20
2022-11-13T04:52:51.983Z,51.70
2022-11-13T04:55:20.085Z,51.20
2022-11-13T04:57:51.371Z,51.20
2022-11-13T05:00:20.942Z,51.20
2022-11-13T05:02:48.861Z,51.20
2022-11-13T05:05:16.821Z,51.20
2022-11-13T05:07:44.729Z,51.20
2022-11-13T05:10:12.689Z,51.10
2022-11-13T05:12:40.577Z,51.10
2022-11-13T05:15:09.348Z,51.20
2022-11-13T05:17:38.697Z,51.30
2022-11-13T05:20:07.684Z,51.30
2022-11-13T05:22:35.633Z,51.30
2022-11-13T05:25:03.596Z,51.20
2022-11-13T05:27:32.141Z,51.30
2022-11-13T05:30:00.013Z,51.30
2022-11-13T05:32:27.928Z,51.20
2022-11-13T05:34:57.208Z,51.20
2022-11-13T05:37:25.156Z,51.30
2022-11-13T05:39:53.030Z,51.20
2022-11-13T05:42:21.152Z,51.20
2022-11-13T05:44:49.021Z,51.20
2022-11-13T05:47:16.902Z,51.30
2022-11-13T05:49:44.933Z,51.20
2022-11-13T05:52:14.239Z,51.30
2022-11-13T05:54:42.161Z,51.30
2022-11-13T05:57:10.060Z,51.10
2022-11-13T05:59:38.010Z,51.10
2022-11-13T06:02:05.971Z,51.10
2022-11-13T06:04:34.123Z,51.20
2022-11-13T06:07:02.123Z,51.10
2022-11-13T06:09:31.415Z,51.10
2022-11-13T06:11:59.280Z,51.10
2022-11-13T06:14:27.229Z,51.10
2022-11-13T06:16:55.183Z,51.10
2022-11-13T06:19:23.145Z,51.10
2022-11-13T06:21:51.025Z,51.10
2022-11-13T06:24:18.916Z,51.20
2022-11-13T06:26:48.194Z,51.20
2022-11-13T06:29:16.161Z,51.20
2022-11-13T06:31:44.318Z,51.20
2022-11-13T06:34:12.204Z,51.20
2022-11-13T06:36:40.407Z,51.20
2022-11-13T06:39:09.380Z,51.20
2022-11-13T06:41:39.523Z,51.20
2022-11-13T06:44:09.020Z,51.10
2022-11-13T06:46:37.168Z,51.20
2022-11-13T06:49:05.118Z,51.20
2022-11-13T06:51:33.221Z,51.20
2022-11-13T06:54:01.349Z,51.20
2022-11-13T06:56:29.384Z,51.20
2022-11-13T06:58:57.446Z,51.10
2022-11-13T07:01:27.683Z,51.10
2022-11-13T07:03:55.864Z,51.20
2022-11-13T07:06:25.434Z,51.10
2022-11-13T07:08:53.939Z,51.20
2022-11-13T07:11:23.757Z,51.20
2022-11-13T07:13:52.012Z,51.20
2022-11-13T07:16:20.272Z,51.20
2022-11-13T07:18:53.941Z,51.30
2022-11-13T07:21:22.828Z,51.40
2022-11-13T07:23:51.347Z,51.40
2022-11-13T07:26:19.959Z,51.50
2022-11-13T07:28:48.246Z,51.50
2022-11-13T07:31:17.535Z,51.50
2022-11-13T07:33:45.650Z,51.50
2022-11-13T07:36:14.919Z,51.60
2022-11-13T07:38:42.990Z,51.70
2022-11-13T07:41:10.948Z,51.70
2022-11-13T07:43:39.062Z,51.60
2022-11-13T07:46:07.940Z,51.70
2022-11-13T07:48:35.829Z,51.60
2022-11-13T07:51:04.595Z,51.80
2022-11-13T07:53:33.945Z,51.80
2022-11-13T07:56:03.102Z,51.80
2022-11-13T07:58:31.657Z,51.80
2022-11-13T08:01:04.116Z,51.90
2022-11-13T08:03:32.563Z,51.90
2022-11-13T08:06:05.555Z,51.90
2022-11-13T08:08:35.735Z,52.00
2022-11-13T08:11:07.754Z,52.10
2022-11-13T08:13:36.152Z,52.20
2022-11-13T08:16:04.678Z,52.20
2022-11-13T08:18:33.140Z,52.30
2022-11-13T08:21:03.464Z,52.40
2022-11-13T08:23:31.851Z,52.40
2022-11-13T08:26:05.907Z,52.30
2022-11-13T08:28:34.640Z,52.30
2022-11-13T08:31:03.491Z,52.20
2022-11-13T08:33:31.436Z,52.30
2022-11-13T08:36:01.089Z,52.30
2022-11-13T08:38:29.312Z,52.50
2022-11-13T08:40:58.416Z,52.60
2022-11-13T08:43:27.995Z,52.70
2022-11-13T08:45:56.313Z,52.80
2022-11-13T08:48:25.161Z,52.70
2022-11-13T08:50:54.382Z,53.30
2022-11-13T08:53:22.822Z,52.80
2022-11-13T08:55:51.101Z,52.80
2022-11-13T08:58:19.099Z,52.80
2022-11-13T09:00:48.568Z,52.90
2022-11-13T09:03:16.488Z,52.80
2022-11-13T09:05:44.556Z,52.80
2022-11-13T09:08:12.552Z,52.80
2022-11-13T09:10:40.450Z,52.70
2022-11-13T09:13:11.546Z,52.70
2022-11-13T09:15:40.540Z,52.80
2022-11-13T09:18:10.839Z,52.80
2022-11-13T09:20:38.814Z,52.90
2022-11-13T09:23:09.225Z,53.00
2022-11-13T09:25:38.358Z,53.10
2022-11-13T09:28:07.414Z,53.10
2022-11-13T09:30:35.379Z,53.10
2022-11-13T09:33:03.359Z,53.20
2022-11-13T09:35:34.979Z,53.20
2022-11-13T09:38:09.442Z,53.20
2022-11-13T09:40:44.039Z,53.20
2022-11-13T09:43:32.056Z,53.20
2022-11-13T09:46:04.869Z,53.10
2022-11-13T09:48:37.485Z,53.10
2022-11-13T09:51:12.873Z,53.10
2022-11-13T09:53:41.707Z,53.20
2022-11-13T09:56:26.760Z,53.20
2022-11-13T09:59:03.501Z,52.50
2022-11-13T10:01:42.014Z,52.40
2022-11-13T10:04:14.568Z,52.30
2022-11-13T10:07:05.019Z,52.30
2022-11-13T10:09:40.098Z,52.40
2022-11-13T10:12:10.274Z,52.50
2022-11-13T10:14:43.980Z,52.60
2022-11-13T10:17:17.764Z,52.60
2022-11-13T10:19:54.392Z,52.70
2022-11-13T10:22:33.312Z,52.70
2022-11-13T10:25:11.854Z,52.80
2022-11-13T10:27:40.080Z,52.90
2022-11-13T10:30:14.341Z,53.00
2022-11-13T10:32:42.501Z,53.20
2022-11-13T10:35:29.689Z,53.20
2022-11-13T10:38:08.287Z,53.30
2022-11-13T10:40:38.983Z,53.30
2022-11-13T10:43:14.322Z,53.40
2022-11-13T10:45:43.386Z,53.50
2022-11-13T10:48:21.752Z,53.70
2022-11-13T10:50:58.531Z,53.80
2022-11-13T10:53:33.924Z,53.80
2022-11-13T10:56:01.852Z,54.40
2022-11-13T10:58:29.969Z,55.70
2022-11-13T11:00:58.170Z,56.30
2022-11-13T11:03:29.310Z,56.50
2022-11-13T11:05:59.169Z,56.50
2022-11-13T11:08:32.517Z,56.10
2022-11-13T11:11:19.933Z,56.10
2022-11-13T11:13:49.057Z,54.90
2022-11-13T11:16:23.822Z,54.40
2022-11-13T11:18:56.914Z,54.00
2022-11-13T11:21:28.476Z,53.70
2022-11-13T11:24:04.036Z,53.50
2022-11-13T11:26:36.676Z,53.40
2022-11-13T11:29:18.101Z,53.30
2022-11-13T11:31:52.586Z,53.30
2022-11-13T11:34:24.841Z,53.40
2022-11-13T11:36:58.755Z,53.50
2022-11-13T11:39:32.580Z,53.50
2022-11-13T11:42:15.456Z,53.50
2022-11-13T11:45:01.290Z,53.60
2022-11-13T11:47:29.942Z,57.50
2022-11-13T11:49:57.888Z,60.30
2022-11-13T11:52:37.923Z,60.30
2022-11-13T11:55:20.760Z,59.00
2022-11-13T11:57:56.531Z,57.60
2022-11-13T12:00:24.430Z,56.40
2022-11-13T12:03:22.880Z,56.10
2022-11-13T12:05:58.512Z,56.80
2022-11-13T12:08:37.399Z,62.20
2022-11-13T12:11:14.234Z,67.90
2022-11-13T12:13:49.673Z,71.90
2022-11-13T12:16:26.028Z,75.80
2022-11-13T12:19:03.904Z,76.40
2022-11-13T12:21:40.768Z,77.50
2022-11-13T12:24:42.761Z,77.60
2022-11-13T12:27:21.279Z,75.90
2022-11-13T12:29:59.841Z,73.00
2022-11-13T12:32:40.876Z,69.00
2022-11-13T12:35:14.703Z,65.20
2022-11-13T12:37:48.476Z,62.00
2022-11-13T12:40:23.497Z,58.50
2022-11-13T12:42:57.780Z,55.50
2022-11-13T12:45:33.033Z,53.40
2022-11-13T12:48:09.637Z,51.90
2022-11-13T12:50:37.808Z,50.60
2022-11-13T12:53:07.875Z,49.80
2022-11-13T12:55:38.566Z,48.90
2022-11-13T12:58:20.981Z,48.40
2022-11-13T13:00:55.590Z,48.00
2022-11-13T13:03:39.764Z,48.10
2022-11-13T13:06:25.225Z,48.00
2022-11-13T13:09:07.409Z,48.30
2022-11-13T13:11:44.713Z,48.40
2022-11-13T13:14:31.414Z,48.60
2022-11-13T13:17:07.373Z,48.70
2022-11-13T13:19:35.673Z,49.00
2022-11-13T13:22:03.665Z,49.20
2022-11-13T13:24:34.442Z,49.30
2022-11-13T13:27:02.731Z,49.30
2022-11-13T13:29:34.532Z,49.10
2022-11-13T13:32:16.582Z,49.20
2022-11-13T13:35:03.001Z,49.40
2022-11-13T13:37:38.314Z,49.50
2022-11-13T13:40:22.807Z,49.60
2022-11-13T13:43:04.538Z,49.90
2022-11-13T13:45:43.726Z,50.10
2022-11-13T13:48:13.261Z,50.20
2022-11-13T13:50:45.318Z,50.30
2022-11-13T13:53:17.468Z,50.50
2022-11-13T13:55:49.092Z,50.50
2022-11-13T13:58:20.148Z,50.70
2022-11-13T14:01:17.616Z,50.80
2022-11-13T14:03:47.830Z,51.00
2022-11-13T14:06:22.084Z,51.00
2022-11-13T14:08:50.264Z,51.10
2022-11-13T14:11:20.964Z,51.60
2022-11-13T14:13:48.898Z,51.10
2022-11-13T14:16:18.180Z,51.20
2022-11-13T14:18:46.179Z,51.30
2022-11-13T14:21:18.158Z,51.30
2022-11-13T14:23:49.772Z,51.40
2022-11-13T14:26:18.969Z,51.40
2022-11-13T14:28:53.504Z,51.30
2022-11-13T14:31:29.824Z,51.40
2022-11-13T14:33:59.401Z,51.50
2022-11-13T14:36:31.481Z,51.40
2022-11-13T14:39:00.260Z,51.50
2022-11-13T14:41:36.153Z,51.50
2022-11-13T14:44:04.367Z,51.50
2022-11-13T14:46:37.717Z,51.50
2022-11-13T14:49:05.912Z,51.60
2022-11-13T14:51:35.484Z,51.50
2022-11-13T14:54:07.794Z,51.50
2022-11-13T14:56:41.047Z,51.50
2022-11-13T14:59:10.018Z,51.40
2022-11-13T15:01:39.374Z,51.40
2022-11-13T15:04:07.337Z,51.50
2022-11-13T15:06:38.213Z,51.40
2022-11-13T15:09:12.207Z,51.40
2022-11-13T15:11:40.671Z,51.30
2022-11-13T15:14:12.010Z,51.20
2022-11-13T15:16:42.045Z,51.30
2022-11-13T15:19:15.571Z,51.30
2022-11-13T15:21:51.088Z,51.20
2022-11-13T15:24:32.095Z,51.10
2022-11-13T15:27:00.080Z,51.00
2022-11-13T15:29:27.981Z,51.00
2022-11-13T15:31:58.044Z,50.90
2022-11-13T15:34:26.806Z,50.90
2022-11-13T15:36:54.678Z,50.80
2022-11-13T15:39:24.031Z,50.70
2022-11-13T15:41:52.753Z,50.70
2022-11-13T15:44:20.676Z,50.60
2022-11-13T15:46:48.576Z,50.60
2022-11-13T15:49:17.899Z,50.60
2022-11-13T15:51:46.931Z,50.60
2022-11-13T15:54:19.460Z,50.50
2022-11-13T15:56:48.212Z,50.50
2022-11-13T15:59:17.518Z,50.40
2022-11-13T16:01:45.910Z,50.40
2022-11-13T16:04:16.311Z,50.30
2022-11-13T16:06:46.083Z,50.30
2022-11-13T16:09:15.148Z,50.30
2022-11-13T16:11:43.632Z,50.20
2022-11-13T16:14:11.542Z,50.10
2022-11-13T16:16:41.807Z,50.10
2022-11-13T16:19:13.800Z,50.00
2022-11-13T16:21:41.760Z,50.10
2022-11-13T16:24:12.430Z,50.00
2022-11-13T16:26:41.714Z,49.90
2022-11-13T16:29:19.489Z,49.90
2022-11-13T16:31:47.546Z,50.00
2022-11-13T16:34:15.506Z,49.90
2022-11-13T16:36:44.051Z,50.40
2022-11-13T16:39:16.849Z,49.90
2022-11-13T16:41:44.805Z,49.90
2022-11-13T16:44:12.738Z,49.70
2022-11-13T16:46:44.952Z,49.80
2022-11-13T16:49:18.840Z,50.60
2022-11-13T16:51:46.884Z,50.50
2022-11-13T16:54:16.342Z,50.50
2022-11-13T16:56:44.972Z,50.50
2022-11-13T16:59:13.354Z,50.40
2022-11-13T17:01:41.340Z,50.40
2022-11-13T17:04:11.949Z,50.40
2022-11-13T17:06:39.918Z,50.50
2022-11-13T17:09:07.879Z,50.40
2022-11-13T17:11:37.246Z,50.40
2022-11-13T17:14:05.321Z,50.50
2022-11-13T17:16:33.504Z,50.40
2022-11-13T17:19:01.869Z,50.50
2022-11-13T17:21:30.942Z,50.50
2022-11-13T17:24:00.953Z,50.50
2022-11-13T17:26:30.229Z,50.60
2022-11-13T17:29:01.856Z,50.60
2022-11-13T17:31:29.745Z,50.60
2022-11-13T17:33:58.179Z,50.50
2022-11-13T17:36:26.052Z,50.40
2022-11-13T17:38:53.995Z,50.30
2022-11-13T17:41:22.164Z,50.30
2022-11-13T17:43:50.185Z,50.30
2022-11-13T17:46:19.604Z,50.30
2022-11-13T17:48:48.094Z,50.30
2022-11-13T17:51:16.747Z,50.30
2022-11-13T17:53:44.807Z,50.20
2022-11-13T17:56:13.720Z,50.80
2022-11-13T17:58:43.264Z,50.20
2022-11-13T18:01:13.927Z,50.20
2022-11-13T18:03:43.656Z,50.30
2022-11-13T18:06:18.234Z,50.20
2022-11-13T18:08:47.934Z,50.20
2022-11-13T18:11:19.205Z,50.20
2022-11-13T18:13:48.012Z,50.20
2022-11-13T18:16:19.953Z,50.30
2022-11-13T18:18:53.332Z,50.50
2022-11-13T18:21:23.682Z,50.60
2022-11-13T18:23:57.744Z,50.60
2022-11-13T18:26:26.084Z,50.70
2022-11-13T18:28:54.291Z,50.60
2022-11-13T18:31:23.500Z,50.70
2022-11-13T18:33:53.164Z,50.80
2022-11-13T18:36:21.127Z,50.70
2022-11-13T18:38:49.059Z,50.70
2022-11-13T18:41:19.189Z,50.70
2022-11-13T18:43:48.185Z,50.20
2022-11-13T18:46:18.073Z,50.60
2022-11-13T18:48:47.554Z,50.60
2022-11-13T18:51:18.435Z,50.50
2022-11-13T18:53:48.316Z,50.50
2022-11-13T18:56:17.660Z,50.40
2022-11-13T18:58:47.903Z,50.40
2022-11-13T19:01:22.253Z,50.50
2022-11-13T19:04:16.242Z,50.40
2022-11-13T19:06:40.815Z,50.40
2022-11-13T19:09:11.804Z,50.40
2022-11-13T19:11:39.993Z,50.50
2022-11-13T19:14:08.589Z,50.60
2022-11-13T19:16:38.496Z,50.50
2022-11-13T19:19:08.892Z,50.50
2022-11-13T19:21:37.798Z,50.60
2022-11-13T19:24:08.696Z,50.60
2022-11-13T19:26:36.707Z,51.10
2022-11-13T19:29:04.711Z,50.60
2022-11-13T19:31:33.336Z,50.60
2022-11-13T19:34:03.108Z,50.60
2022-11-13T19:36:32.900Z,50.60
2022-11-13T19:39:01.021Z,50.70
2022-11-13T19:41:31.092Z,50.70
2022-11-13T19:44:00.598Z,50.70
2022-11-13T19:46:31.928Z,50.70
2022-11-13T19:48:59.998Z,50.70
2022-11-13T19:51:28.017Z,51.20
2022-11-13T19:53:57.252Z,50.70
2022-11-13T19:56:26.870Z,50.60
2022-11-13T19:58:56.313Z,50.60
2022-11-13T20:01:26.211Z,50.70
2022-11-13T20:03:58.484Z,50.60
2022-11-13T20:06:27.792Z,50.60
2022-11-13T20:08:56.032Z,50.60
2022-11-13T20:11:23.964Z,50.60
2022-11-13T20:13:51.885Z,50.70
2022-11-13T20:16:23.404Z,50.70
2022-11-13T20:18:52.082Z,50.80
2022-11-13T20:21:24.449Z,50.90
2022-11-13T20:23:53.771Z,51.00
2022-11-13T20:26:21.714Z,51.10
2022-11-13T20:28:49.617Z,51.10
2022-11-13T20:31:22.146Z,51.20
2022-11-13T20:33:50.822Z,51.20
2022-11-13T20:36:19.483Z,51.30
2022-11-13T20:38:50.944Z,51.30
2022-11-13T20:41:20.692Z,51.40
2022-11-13T20:43:48.878Z,51.30
2022-11-13T20:46:18.092Z,51.40
2022-11-13T20:48:47.635Z,51.50
2022-11-13T20:51:17.732Z,51.60
2022-11-13T20:53:45.768Z,51.60
2022-11-13T20:56:14.158Z,51.60
2022-11-13T20:58:42.139Z,51.60
2022-11-13T21:01:12.677Z,51.70
2022-11-13T21:03:42.176Z,51.70
2022-11-13T21:06:12.842Z,51.70
2022-11-13T21:08:40.876Z,51.80
2022-11-13T21:11:12.441Z,51.80
2022-11-13T21:13:40.341Z,51.80
2022-11-13T21:16:09.838Z,51.70
2022-11-13T21:18:38.273Z,51.80
2022-11-13T21:21:10.077Z,51.70
2022-11-13T21:23:39.469Z,51.70
2022-11-13T21:26:09.082Z,51.70
2022-11-13T21:28:37.662Z,51.70
2022-11-13T21:31:07.745Z,51.70
2022-11-13T21:33:37.977Z,51.80
2022-11-13T21:36:07.001Z,51.90
2022-11-13T21:38:34.997Z,51.90
2022-11-13T21:41:25.582Z,51.90
2022-11-13T21:43:57.717Z,52.00
2022-11-13T21:46:28.162Z,51.80
2022-11-13T21:48:58.061Z,51.90
2022-11-13T21:51:26.370Z,51.90
2022-11-13T21:53:54.317Z,52.00
2022-11-13T21:56:24.164Z,52.10
2022-11-13T21:58:52.286Z,52.00
2022-11-13T22:01:20.423Z,52.00
2022-11-13T22:03:48.349Z,52.00
2022-11-13T22:06:19.165Z,52.00
2022-11-13T22:08:48.622Z,52.00
2022-11-13T22:11:16.560Z,52.00
2022-11-13T22:13:45.895Z,51.90
2022-11-13T22:16:15.810Z,51.90
2022-11-13T22:18:43.972Z,51.90
2022-11-13T22:21:15.656Z,51.90
2022-11-13T22:23:43.592Z,52.40
2022-11-13T22:26:13.090Z,51.90
2022-11-13T22:28:43.676Z,51.90
2022-11-13T22:31:15.648Z,51.90
2022-11-13T22:33:48.279Z,51.90
2022-11-13T22:36:19.719Z,51.90
2022-11-13T22:38:47.903Z,52.40
2022-11-13T22:41:22.579Z,51.90
2022-11-13T22:43:52.851Z,51.90
2022-11-13T22:46:25.960Z,51.90
2022-11-13T22:48:55.297Z,51.90
2022-11-13T22:51:25.305Z,51.90
2022-11-13T22:53:55.133Z,51.90
2022-11-13T22:56:24.885Z,51.80
2022-11-13T22:58:54.355Z,51.80
2022-11-13T23:01:25.871Z,51.80
2022-11-13T23:03:55.203Z,51.80
2022-11-13T23:06:24.966Z,51.90
2022-11-13T23:08:53.785Z,51.80
2022-11-13T23:11:23.943Z,51.80
2022-11-13T23:13:54.153Z,51.80
2022-11-13T23:16:24.728Z,51.80
2022-11-13T23:18:54.331Z,52.40
2022-11-13T23:21:22.615Z,51.80
2022-11-13T23:23:50.787Z,51.80
2022-11-13T23:26:18.991Z,51.70
2022-11-13T23:28:47.185Z,51.80
2022-11-13T23:31:15.109Z,51.80
2022-11-13T23:33:44.606Z,51.80
2022-11-13T23:36:14.171Z,51.80
2022-11-13T23:38:42.355Z,51.80
2022-11-13T23:41:11.182Z,51.60
2022-11-13T23:44:08.260Z,51.60
2022-11-13T23:46:27.011Z,52.10
2022-11-13T23:48:56.404Z,51.60
2022-11-13T23:51:24.350Z,51.70
2022-11-13T23:53:52.255Z,51.60
2022-11-13T23:56:20.198Z,51.60
2022-11-13T23:58:48.126Z,51.60
